createdAt,value
2017-06-27T00:01:43.456Z,58.30
2017-06-27T00:04:10.991Z,58.50
2017-06-27T00:06:39.743Z,58.80
2017-06-27T00:09:09.433Z,58.90
2017-06-27T00:14:15.530Z,58.70
2017-06-27T00:16:44.142Z,58.60
2017-06-27T00:19:11.577Z,58.80
2017-06-27T00:21:44.946Z,58.70
2017-06-27T00:24:12.481Z,58.60
2017-06-27T00:26:40.012Z,58.60
2017-06-27T00:29:07.502Z,58.60
2017-06-27T00:31:36.873Z,58.40
2017-06-27T00:34:04.327Z,58.40
2017-06-27T00:36:32.345Z,58.70
2017-06-27T00:38:59.925Z,58.80
2017-06-27T00:41:35.144Z,59.10
2017-06-27T00:44:04.188Z,58.90
2017-06-27T00:46:32.506Z,59.00
2017-06-27T00:49:00.060Z,59.00
2017-06-27T00:51:28.518Z,59.10
2017-06-27T00:53:56.467Z,59.30
2017-06-27T00:56:24.730Z,59.30
2017-06-27T00:58:52.452Z,59.30
2017-06-27T01:01:20.458Z,59.40
2017-06-27T01:03:47.973Z,59.40
2017-06-27T01:06:18.649Z,59.40
2017-06-27T01:08:46.958Z,59.60
2017-06-27T01:11:15.410Z,59.80
2017-06-27T01:13:45.635Z,59.70
2017-06-27T01:16:13.933Z,59.80
2017-06-27T01:18:41.435Z,59.90
2017-06-27T01:21:08.905Z,60.20
2017-06-27T01:23:36.375Z,59.90
2017-06-27T01:26:04.855Z,60.10
2017-06-27T01:28:36.005Z,60.00
2017-06-27T01:31:05.677Z,60.30
2017-06-27T01:33:35.055Z,60.60
2017-06-27T01:38:36.583Z,61.10
2017-06-27T01:41:04.037Z,61.20
2017-06-27T01:43:32.376Z,62.60
2017-06-27T01:46:00.428Z,61.90
2017-06-27T01:48:27.922Z,61.80
2017-06-27T01:50:55.435Z,62.00
2017-06-27T01:53:25.195Z,62.00
2017-06-27T01:55:52.804Z,62.10
2017-06-27T01:58:21.045Z,62.20
2017-06-27T02:00:48.635Z,62.10
2017-06-27T02:03:16.144Z,62.20
2017-06-27T02:05:45.115Z,62.30
2017-06-27T02:08:12.644Z,62.30
2017-06-27T02:10:40.378Z,62.50
2017-06-27T02:13:07.919Z,62.70
2017-06-27T02:15:37.347Z,63.00
2017-06-27T02:18:05.603Z,63.00
2017-06-27T02:20:34.015Z,62.90
2017-06-27T02:23:01.592Z,63.00
2017-06-27T02:25:29.095Z,63.00
2017-06-27T02:27:57.208Z,62.70
2017-06-27T02:30:25.486Z,62.80
2017-06-27T02:32:53.043Z,62.80
2017-06-27T02:35:20.514Z,62.80
2017-06-27T02:37:51.640Z,63.00
2017-06-27T02:40:19.584Z,63.00
2017-06-27T02:42:47.306Z,63.30
2017-06-27T02:45:14.798Z,63.30
2017-06-27T02:47:42.355Z,63.40
2017-06-27T02:50:09.949Z,63.30
2017-06-27T02:52:37.415Z,63.30
2017-06-27T02:55:05.682Z,63.40
2017-06-27T02:57:34.122Z,63.60
2017-06-27T03:00:01.615Z,63.60
2017-06-27T03:02:29.137Z,63.80
2017-06-27T03:04:56.724Z,64.10
2017-06-27T03:07:24.252Z,64.10
2017-06-27T03:09:52.083Z,64.10
2017-06-27T03:12:20.384Z,64.10
2017-06-27T03:14:47.923Z,64.10
2017-06-27T03:17:15.446Z,64.00
2017-06-27T03:19:49.654Z,63.70
2017-06-27T03:22:17.242Z,63.70
2017-06-27T03:24:45.323Z,63.60
2017-06-27T03:27:13.605Z,63.70
2017-06-27T03:29:41.887Z,64.20
2017-06-27T03:32:09.334Z,64.20
2017-06-27T03:34:36.901Z,64.50
2017-06-27T03:37:04.411Z,64.70
2017-06-27T03:39:31.910Z,64.80
2017-06-27T03:42:03.374Z,64.90
2017-06-27T03:44:35.772Z,64.90
2017-06-27T03:47:03.407Z,65.10
2017-06-27T03:49:31.631Z,65.20
2017-06-27T03:51:59.307Z,65.10
2017-06-27T03:54:26.828Z,65.10
2017-06-27T03:56:54.314Z,64.90
2017-06-27T03:59:21.771Z,65.00
2017-06-27T04:04:23.235Z,65.10
2017-06-27T04:06:50.781Z,65.20
2017-06-27T04:09:18.281Z,65.20
2017-06-27T04:11:45.819Z,65.30
2017-06-27T04:14:14.194Z,65.00
2017-06-27T04:16:41.689Z,65.00
2017-06-27T04:19:10.032Z,65.10
2017-06-27T04:21:37.930Z,65.40
2017-06-27T04:24:07.087Z,65.20
2017-06-27T04:26:34.665Z,65.20
2017-06-27T04:29:02.258Z,65.50
2017-06-27T04:31:29.918Z,65.70
2017-06-27T04:33:57.465Z,65.70
2017-06-27T04:36:27.170Z,65.60
2017-06-27T04:38:54.734Z,65.50
2017-06-27T04:41:22.224Z,65.20
2017-06-27T04:43:50.527Z,65.20
2017-06-27T04:46:18.053Z,64.60
2017-06-27T04:48:45.671Z,64.10
2017-06-27T04:51:14.598Z,64.30
2017-06-27T04:53:43.961Z,64.60
2017-06-27T04:56:12.286Z,64.60
2017-06-27T04:58:40.520Z,64.60
2017-06-27T05:01:10.559Z,64.50
2017-06-27T05:03:39.679Z,65.30
2017-06-27T05:06:09.438Z,65.30
2017-06-27T05:08:36.979Z,65.50
2017-06-27T05:11:04.456Z,65.10
2017-06-27T05:13:32.923Z,65.10
2017-06-27T05:16:07.267Z,64.90
2017-06-27T05:18:39.544Z,65.80
2017-06-27T05:21:08.019Z,65.10
2017-06-27T05:23:39.041Z,65.00
2017-06-27T05:26:09.383Z,64.80
2017-06-27T05:28:37.967Z,64.50
2017-06-27T05:31:05.659Z,64.00
2017-06-27T05:33:33.538Z,63.90
2017-06-27T05:38:46.113Z,63.20
2017-06-27T05:41:14.551Z,63.50
2017-06-27T05:43:45.688Z,63.70
2017-06-27T05:46:23.980Z,64.00
2017-06-27T05:49:01.041Z,63.70
2017-06-27T05:51:32.585Z,63.40
2017-06-27T05:54:05.372Z,63.60
2017-06-27T05:56:36.622Z,63.30
2017-06-27T05:59:07.485Z,63.40
2017-06-27T06:01:36.314Z,62.70
2017-06-27T06:04:06.127Z,62.00
2017-06-27T06:06:35.631Z,62.10
2017-06-27T06:09:03.208Z,62.40
2017-06-27T06:11:30.785Z,62.50
2017-06-27T06:14:00.371Z,62.40
2017-06-27T06:16:28.129Z,62.60
2017-06-27T06:18:56.685Z,62.40
2017-06-27T06:21:25.934Z,62.10
2017-06-27T06:23:54.356Z,62.10
2017-06-27T06:26:22.642Z,62.20
2017-06-27T06:28:52.391Z,62.20
2017-06-27T06:31:20.277Z,62.00
2017-06-27T06:34:00.068Z,62.50
2017-06-27T06:36:34.375Z,61.70
2017-06-27T06:39:15.852Z,61.00
2017-06-27T06:41:53.905Z,61.00
2017-06-27T06:44:23.211Z,61.00
2017-06-27T06:47:02.134Z,60.80
2017-06-27T06:49:39.543Z,60.30
2017-06-27T06:52:07.080Z,60.00
2017-06-27T06:54:46.012Z,60.10
2017-06-27T06:57:18.248Z,60.90
2017-06-27T06:59:55.557Z,60.90
2017-06-27T07:02:24.346Z,60.70
2017-06-27T07:07:31.189Z,60.50
2017-06-27T07:10:00.180Z,60.30
2017-06-27T07:12:28.732Z,59.60
2017-06-27T07:14:57.193Z,59.20
2017-06-27T07:17:24.813Z,58.50
2017-06-27T07:19:52.435Z,57.80
2017-06-27T07:22:23.710Z,57.10
2017-06-27T07:24:53.268Z,57.20
2017-06-27T07:27:29.061Z,56.40
2017-06-27T07:29:56.692Z,56.00
2017-06-27T07:32:27.253Z,56.10
2017-06-27T07:34:54.876Z,55.50
2017-06-27T07:40:27.811Z,54.60
2017-06-27T07:42:59.140Z,55.70
2017-06-27T07:48:11.885Z,56.70
2017-06-27T07:53:30.619Z,56.70
2017-06-27T07:55:58.741Z,56.50
2017-06-27T07:58:31.755Z,56.10
2017-06-27T08:01:01.864Z,55.40
2017-06-27T08:03:31.225Z,55.00
2017-06-27T08:06:00.317Z,54.90
2017-06-27T08:08:29.545Z,54.70
2017-06-27T08:10:59.155Z,55.20
2017-06-27T08:13:28.759Z,55.30
2017-06-27T08:16:02.064Z,54.00
2017-06-27T08:21:09.480Z,52.90
2017-06-27T08:23:49.500Z,52.80
2017-06-27T08:28:58.842Z,52.00
2017-06-27T08:31:37.464Z,52.80
2017-06-27T08:34:28.988Z,53.70
2017-06-27T08:36:57.256Z,54.90
2017-06-27T08:39:34.039Z,54.90
2017-06-27T08:42:13.177Z,55.00
2017-06-27T08:44:44.028Z,54.00
2017-06-27T08:47:12.595Z,53.70
2017-06-27T08:49:42.515Z,53.80
2017-06-27T08:52:12.576Z,53.70
2017-06-27T08:54:49.298Z,53.60
2017-06-27T08:57:18.098Z,53.50
2017-06-27T08:59:46.768Z,53.90
2017-06-27T09:02:16.754Z,54.20
2017-06-27T09:04:48.538Z,54.60
2017-06-27T09:07:16.149Z,54.70
2017-06-27T09:09:45.947Z,54.90
2017-06-27T09:12:13.580Z,55.00
2017-06-27T09:14:44.043Z,54.90
2017-06-27T09:17:11.632Z,55.00
2017-06-27T09:19:53.973Z,54.90
2017-06-27T09:22:24.979Z,54.20
2017-06-27T09:24:54.749Z,53.30
2017-06-27T09:27:25.411Z,52.60
2017-06-27T09:29:54.984Z,52.90
2017-06-27T09:32:22.683Z,53.30
2017-06-27T09:34:51.954Z,53.40
2017-06-27T09:37:26.691Z,52.50
2017-06-27T09:39:54.987Z,50.70
2017-06-27T09:42:23.014Z,50.60
2017-06-27T09:44:52.730Z,50.50
2017-06-27T09:47:22.758Z,50.20
2017-06-27T09:49:55.466Z,49.60
2017-06-27T09:52:34.255Z,50.50
2017-06-27T10:01:16.704Z,52.40
2017-06-27T10:04:07.695Z,53.30
2017-06-27T10:06:43.493Z,54.00
2017-06-27T10:15:04.711Z,54.80
2017-06-27T10:17:42.617Z,54.10
2017-06-27T10:23:30.164Z,53.00
2017-06-27T10:26:11.129Z,53.60
2017-06-27T10:28:47.543Z,53.70
2017-06-27T10:36:46.347Z,54.60
2017-06-27T10:39:23.444Z,53.80
2017-06-27T10:42:12.740Z,53.30
2017-06-27T10:44:45.447Z,52.80
2017-06-27T10:47:15.781Z,52.60
2017-06-27T10:49:47.477Z,51.80
2017-06-27T10:52:17.571Z,52.40
2017-06-27T10:54:53.094Z,52.10
2017-06-27T10:57:21.231Z,52.00
2017-06-27T10:59:52.453Z,51.60
2017-06-27T11:02:22.850Z,51.90
2017-06-27T11:04:51.372Z,51.70
2017-06-27T11:10:19.247Z,53.30
2017-06-27T11:12:47.660Z,53.40
2017-06-27T11:15:32.251Z,53.50
2017-06-27T11:18:05.148Z,53.40
2017-06-27T11:24:09.593Z,53.20
2017-06-27T11:26:55.384Z,53.30
2017-06-27T11:29:30.647Z,53.50
2017-06-27T11:32:11.032Z,53.20
2017-06-27T11:34:45.336Z,53.50
2017-06-27T11:37:16.205Z,54.50
2017-06-27T11:42:39.301Z,55.70
2017-06-27T11:45:34.762Z,56.30
2017-06-27T11:48:02.235Z,56.30
2017-06-27T11:50:34.966Z,55.90
2017-06-27T11:53:02.839Z,56.10
2017-06-27T11:55:33.179Z,55.90
2017-06-27T11:58:29.691Z,55.90
2017-06-27T12:01:16.964Z,56.00
2017-06-27T12:12:32.372Z,54.50
2017-06-27T12:17:40.054Z,55.20
2017-06-27T12:20:09.555Z,55.00
2017-06-27T12:22:41.150Z,55.70
2017-06-27T12:25:14.225Z,55.70
2017-06-27T12:36:14.752Z,56.20
2017-06-27T12:47:56.470Z,56.90
2017-06-27T12:50:43.595Z,56.10
2017-06-27T13:02:03.804Z,56.20
2017-06-27T13:29:39.482Z,56.80
2017-06-27T13:32:08.247Z,56.30
2017-06-27T13:35:03.578Z,56.40
2017-06-27T13:37:41.223Z,56.50
2017-06-27T13:40:13.310Z,56.20
2017-06-27T13:42:52.808Z,56.50
2017-06-27T13:53:38.460Z,57.70
2017-06-27T13:59:13.198Z,58.10
2017-06-27T14:04:53.392Z,58.80
2017-06-27T14:07:28.107Z,59.20
2017-06-27T14:12:46.231Z,59.70
2017-06-27T14:15:19.369Z,59.40
2017-06-27T14:17:47.833Z,59.80
2017-06-27T14:20:20.636Z,59.50
2017-06-27T14:22:57.132Z,59.50
2017-06-27T14:25:29.521Z,58.80
2017-06-27T14:28:02.929Z,58.70
2017-06-27T14:30:37.343Z,58.40
2017-06-27T14:33:06.126Z,59.20
2017-06-27T14:35:34.588Z,58.30
2017-06-27T14:38:02.176Z,58.30
2017-06-27T14:40:30.675Z,58.60
2017-06-27T14:43:00.112Z,58.70
2017-06-27T14:45:28.943Z,59.40
2017-06-27T14:47:58.539Z,59.70
2017-06-27T14:50:26.275Z,60.30
2017-06-27T14:52:54.196Z,59.70
2017-06-27T14:55:21.743Z,59.40
2017-06-27T14:57:50.312Z,59.10
2017-06-27T15:00:19.162Z,59.00
2017-06-27T15:05:19.995Z,58.00
2017-06-27T15:07:47.731Z,57.80
2017-06-27T15:10:16.468Z,57.80
2017-06-27T15:12:45.236Z,58.90
2017-06-27T15:15:15.449Z,58.30
2017-06-27T15:17:43.779Z,58.50
2017-06-27T15:20:21.034Z,58.20
2017-06-27T15:22:50.170Z,58.40
2017-06-27T15:25:19.141Z,58.40
2017-06-27T15:27:47.522Z,59.00
2017-06-27T15:30:15.903Z,58.90
2017-06-27T15:32:44.258Z,59.10
2017-06-27T15:35:12.226Z,59.80
2017-06-27T15:37:40.636Z,59.90
2017-06-27T15:40:10.921Z,60.10
2017-06-27T15:42:39.369Z,60.80
2017-06-27T15:45:08.779Z,60.80
2017-06-27T15:47:37.063Z,60.80
2017-06-27T15:50:10.615Z,60.80
2017-06-27T15:52:38.750Z,61.50
2017-06-27T15:55:06.246Z,61.70
2017-06-27T15:57:35.745Z,62.40
2017-06-27T16:00:04.285Z,62.40
2017-06-27T16:02:32.654Z,62.60
2017-06-27T16:05:03.565Z,62.50
2017-06-27T16:07:31.449Z,62.60
2017-06-27T16:09:59.012Z,63.00
2017-06-27T16:12:28.465Z,63.50
2017-06-27T16:14:56.940Z,64.00
2017-06-27T16:17:24.835Z,64.10
2017-06-27T16:19:52.526Z,63.90
2017-06-27T16:22:20.313Z,64.00
2017-06-27T16:24:50.091Z,64.20
2017-06-27T16:27:18.784Z,64.10
2017-06-27T16:29:51.932Z,64.00
2017-06-27T16:32:19.744Z,64.20
2017-06-27T16:34:47.295Z,64.50
2017-06-27T16:37:15.515Z,64.40
2017-06-27T16:39:43.053Z,64.50
2017-06-27T16:42:10.631Z,64.30
2017-06-27T16:44:41.987Z,64.60
2017-06-27T16:47:13.596Z,64.50
2017-06-27T16:49:41.975Z,64.90
2017-06-27T16:52:11.157Z,64.80
2017-06-27T16:54:42.085Z,64.90
2017-06-27T16:57:09.746Z,64.80
2017-06-27T16:59:39.787Z,65.30
2017-06-27T17:02:09.065Z,65.50
2017-06-27T17:04:36.634Z,65.40
2017-06-27T17:07:04.160Z,65.30
2017-06-27T17:09:31.826Z,65.60
2017-06-27T17:12:01.051Z,65.80
2017-06-27T17:14:28.575Z,66.30
2017-06-27T17:16:56.141Z,66.30
2017-06-27T17:19:23.792Z,66.60
2017-06-27T17:21:51.387Z,67.10
2017-06-27T17:24:18.937Z,67.30
2017-06-27T17:26:46.499Z,67.20
2017-06-27T17:29:14.232Z,67.70
2017-06-27T17:31:42.742Z,67.40
2017-06-27T17:34:10.422Z,68.20
2017-06-27T17:36:37.995Z,69.70
2017-06-27T17:39:05.486Z,71.40
2017-06-27T17:41:33.210Z,73.50
2017-06-27T17:44:00.755Z,74.00
2017-06-27T17:46:29.122Z,76.60
2017-06-27T17:48:56.717Z,75.80
2017-06-27T17:51:24.324Z,75.80
2017-06-27T17:53:52.780Z,76.40
2017-06-27T17:56:20.945Z,77.00
2017-06-27T17:58:48.450Z,77.30
2017-06-27T18:01:16.008Z,77.50
2017-06-27T18:03:43.555Z,77.00
2017-06-27T18:06:12.084Z,77.70
2017-06-27T18:08:40.813Z,78.10
2017-06-27T18:11:09.630Z,77.70
2017-06-27T18:13:37.253Z,76.80
2017-06-27T18:16:05.159Z,76.90
2017-06-27T18:18:32.790Z,77.10
2017-06-27T18:21:00.986Z,77.00
2017-06-27T18:23:28.577Z,77.20
2017-06-27T18:25:56.252Z,76.70
2017-06-27T18:28:23.840Z,76.60
2017-06-27T18:30:51.509Z,76.90
2017-06-27T18:33:21.001Z,76.10
2017-06-27T18:35:48.835Z,76.00
2017-06-27T18:38:16.405Z,76.00
2017-06-27T18:40:44.216Z,75.80
2017-06-27T18:43:13.155Z,76.00
2017-06-27T18:45:40.927Z,75.80
2017-06-27T18:48:13.301Z,75.60
2017-06-27T18:50:41.413Z,75.30
2017-06-27T18:53:11.647Z,75.00
2017-06-27T18:55:52.054Z,74.80
2017-06-27T18:58:27.275Z,74.70
2017-06-27T19:00:56.909Z,75.00
2017-06-27T19:03:26.082Z,74.80
2017-06-27T19:05:53.713Z,75.10
2017-06-27T19:08:24.703Z,74.70
2017-06-27T19:10:52.953Z,75.20
2017-06-27T19:13:26.909Z,75.00
2017-06-27T19:15:55.841Z,74.60
2017-06-27T19:18:24.239Z,74.90
2017-06-27T19:20:52.584Z,74.70
2017-06-27T19:23:20.975Z,74.90
2017-06-27T19:25:53.570Z,74.90
2017-06-27T19:28:22.294Z,74.80
2017-06-27T19:30:58.392Z,75.10
2017-06-27T19:33:27.409Z,75.10
2017-06-27T19:35:55.172Z,75.10
2017-06-27T19:38:23.596Z,74.80
2017-06-27T19:40:51.130Z,74.70
2017-06-27T19:43:20.217Z,74.60
2017-06-27T19:45:47.950Z,74.90
2017-06-27T19:48:18.362Z,75.10
2017-06-27T19:50:51.614Z,74.70
2017-06-27T19:53:19.233Z,74.80
2017-06-27T19:58:25.071Z,74.40
2017-06-27T20:03:31.524Z,74.60
2017-06-27T20:06:11.325Z,74.60
2017-06-27T20:08:39.615Z,74.60
2017-06-27T20:11:07.374Z,74.50
2017-06-27T20:13:40.017Z,74.80
2017-06-27T20:16:13.064Z,74.90
2017-06-27T20:21:18.873Z,75.40
2017-06-27T20:26:23.478Z,75.40
2017-06-27T20:28:51.237Z,75.30
2017-06-27T20:31:21.213Z,75.20
2017-06-27T20:33:48.961Z,75.60
2017-06-27T20:36:24.263Z,75.50
2017-06-27T20:38:51.835Z,75.60
2017-06-27T20:41:22.722Z,75.90
2017-06-27T20:43:53.027Z,75.70
2017-06-27T20:46:28.291Z,76.20
2017-06-27T20:48:58.009Z,76.00
2017-06-27T20:51:25.659Z,76.10
2017-06-27T20:53:53.394Z,75.90
2017-06-27T20:56:33.916Z,76.10
2017-06-27T20:59:04.425Z,76.50
2017-06-27T21:01:36.469Z,76.20
2017-06-27T21:04:07.936Z,76.50
2017-06-27T21:09:21.640Z,76.10
2017-06-27T21:11:53.565Z,76.40
2017-06-27T21:14:22.572Z,77.10
2017-06-27T21:16:52.687Z,76.10
2017-06-27T21:19:21.258Z,75.80
2017-06-27T21:21:49.056Z,75.80
2017-06-27T21:24:17.823Z,76.10
2017-06-27T21:26:45.345Z,76.10
2017-06-27T21:29:12.936Z,76.10
2017-06-27T21:31:41.264Z,76.00
2017-06-27T21:34:14.417Z,75.80
2017-06-27T21:36:44.537Z,76.10
2017-06-27T21:39:12.771Z,75.90
2017-06-27T21:41:41.769Z,76.00
2017-06-27T21:44:09.315Z,75.70
2017-06-27T21:46:37.806Z,75.60
2017-06-27T21:49:05.279Z,75.50
2017-06-27T21:51:33.730Z,75.40
2017-06-27T21:54:01.287Z,75.30
2017-06-27T21:56:29.833Z,75.60
2017-06-27T21:58:58.722Z,75.80
2017-06-27T22:01:27.512Z,75.80
2017-06-27T22:03:55.045Z,75.90
2017-06-27T22:06:22.662Z,75.80
2017-06-27T22:08:50.442Z,75.80
2017-06-27T22:11:18.013Z,76.10
2017-06-27T22:13:45.786Z,76.20
2017-06-27T22:16:14.333Z,76.00
2017-06-27T22:18:41.767Z,76.10
2017-06-27T22:21:09.325Z,76.10
2017-06-27T22:23:36.999Z,76.20
2017-06-27T22:26:05.448Z,76.00
2017-06-27T22:28:37.083Z,76.00
2017-06-27T22:31:05.444Z,76.30
2017-06-27T22:33:32.899Z,76.20
2017-06-27T22:36:00.360Z,76.00
2017-06-27T22:38:28.227Z,76.20
2017-06-27T22:40:55.730Z,76.00
2017-06-27T22:43:23.240Z,75.60
2017-06-27T22:45:51.000Z,75.80
2017-06-27T22:48:18.553Z,75.90
2017-06-27T22:50:46.019Z,76.00
2017-06-27T22:53:14.772Z,76.30
2017-06-27T22:55:42.367Z,75.70
2017-06-27T22:58:13.240Z,75.60
2017-06-27T23:00:42.357Z,75.70
2017-06-27T23:03:09.851Z,75.70
2017-06-27T23:05:37.811Z,76.00
2017-06-27T23:08:05.892Z,76.30
2017-06-27T23:10:34.405Z,76.50
2017-06-27T23:13:02.164Z,76.50
2017-06-27T23:15:50.914Z,76.50
2017-06-27T23:18:18.608Z,76.60
2017-06-27T23:20:46.379Z,76.70
2017-06-27T23:23:14.310Z,76.90
2017-06-27T23:25:56.893Z,77.30
2017-06-27T23:28:40.403Z,77.30
2017-06-27T23:33:58.506Z,77.90
2017-06-27T23:39:28.393Z,78.40
2017-06-27T23:42:08.895Z,78.30
2017-06-27T23:47:25.074Z,78.60
2017-06-27T23:49:54.498Z,78.50
2017-06-27T23:52:27.332Z,78.40
2017-06-27T23:54:57.496Z,78.50
2017-06-27T23:57:48.307Z,78.60
